createdAt,value
2023-05-10T05:36:14.877Z,56.28
2023-05-10T05:38:45.462Z,55.46
2023-05-10T05:41:31.723Z,55.56
2023-05-10T05:43:58.879Z,55.38
2023-05-10T05:46:26.311Z,55.23
2023-05-10T05:48:53.684Z,53.87
2023-05-10T05:51:23.562Z,53.60
2023-05-10T05:53:50.797Z,53.46
2023-05-10T05:56:19.070Z,53.35
2023-05-10T05:58:46.205Z,53.54
2023-05-10T06:01:13.298Z,53.22
2023-05-10T06:03:41.399Z,51.97
2023-05-10T06:06:08.529Z,51.73
2023-05-10T06:08:37.284Z,50.97
2023-05-10T06:11:20.770Z,49.92
2023-05-10T06:13:57.470Z,49.76
2023-05-10T06:16:28.019Z,49.81
2023-05-10T06:19:16.174Z,49.61
2023-05-10T06:25:59.035Z,48.25
2023-05-10T06:29:22.189Z,48.03
2023-05-10T06:32:34.269Z,47.03
2023-05-10T06:35:14.008Z,46.18
2023-05-10T06:37:43.286Z,45.98
2023-05-10T06:40:10.606Z,45.69
2023-05-10T06:42:39.064Z,45.49
2023-05-10T06:45:12.509Z,45.63
2023-05-10T06:47:51.758Z,45.48
2023-05-10T06:50:37.358Z,44.35
2023-05-10T06:53:04.831Z,44.02
2023-05-10T06:55:31.783Z,43.70
2023-05-10T06:57:58.786Z,42.99
2023-05-10T07:00:26.291Z,42.77
2023-05-10T07:02:53.376Z,42.90
2023-05-10T07:06:33.419Z,43.18
2023-05-10T07:13:51.151Z,42.62
2023-05-10T07:17:26.706Z,43.14
2023-05-10T07:24:08.567Z,42.94
2023-05-10T07:26:47.578Z,42.64
2023-05-10T07:29:14.737Z,42.23
2023-05-10T07:32:09.595Z,41.39
2023-05-10T07:34:50.637Z,40.63
2023-05-10T07:37:30.480Z,40.46
2023-05-10T07:39:58.466Z,40.05
2023-05-10T07:42:25.512Z,40.11
2023-05-10T07:44:52.637Z,40.59
2023-05-10T07:47:26.156Z,40.85
2023-05-10T07:49:53.394Z,41.04
2023-05-10T07:52:26.283Z,41.38
2023-05-10T07:54:53.256Z,41.66
2023-05-10T07:57:20.351Z,41.60
2023-05-10T07:59:53.861Z,40.81
2023-05-10T08:02:39.726Z,40.72
2023-05-10T08:05:08.838Z,40.44
2023-05-10T08:07:35.751Z,40.41
2023-05-10T08:10:03.901Z,41.13
2023-05-10T08:12:32.584Z,41.91
2023-05-10T08:15:01.548Z,42.44
2023-05-10T08:17:32.131Z,43.31
2023-05-10T08:20:00.168Z,44.16
2023-05-10T08:22:28.288Z,44.71
2023-05-10T08:24:55.762Z,44.16
2023-05-10T08:27:23.125Z,43.21
2023-05-10T08:29:50.803Z,42.45
2023-05-10T08:32:20.956Z,42.03
2023-05-10T08:34:57.692Z,41.55
2023-05-10T08:37:29.242Z,40.20
2023-05-10T08:39:56.490Z,38.82
2023-05-10T08:42:23.972Z,39.08
2023-05-10T08:44:51.019Z,39.63
2023-05-10T08:47:19.794Z,39.09
2023-05-10T08:50:02.174Z,39.32
2023-05-10T08:52:41.349Z,38.76
2023-05-10T08:55:09.171Z,38.41
2023-05-10T08:57:37.157Z,38.84
2023-05-10T09:00:04.936Z,38.80
2023-05-10T09:02:32.194Z,37.15
2023-05-10T09:04:59.418Z,36.89
2023-05-10T09:07:52.902Z,36.32
2023-05-10T09:10:27.145Z,35.03
2023-05-10T09:12:55.552Z,35.34
2023-05-10T09:15:25.537Z,34.49
2023-05-10T09:17:53.371Z,33.88
2023-05-10T09:20:20.447Z,34.21
2023-05-10T09:22:48.961Z,34.18
2023-05-10T09:25:20.991Z,32.90
2023-05-10T09:27:58.676Z,32.61
2023-05-10T09:30:31.209Z,32.50
2023-05-10T09:32:59.524Z,34.06
2023-05-10T09:35:30.154Z,33.65
2023-05-10T09:41:47.418Z,32.68
2023-05-10T09:53:38.788Z,31.29
2023-05-10T09:56:35.948Z,31.59
2023-05-10T09:59:11.256Z,31.10
2023-05-10T10:01:50.194Z,31.44
2023-05-10T10:04:19.521Z,31.74
2023-05-10T10:06:46.599Z,31.79
2023-05-10T10:09:13.760Z,32.07
2023-05-10T10:11:42.521Z,31.74
2023-05-10T10:14:09.576Z,31.80
2023-05-10T10:16:36.638Z,32.30
2023-05-10T10:19:04.014Z,32.00
2023-05-10T10:21:31.996Z,31.34
2023-05-10T10:23:59.159Z,31.50
2023-05-10T10:26:26.146Z,31.34
2023-05-10T10:29:05.520Z,31.74
2023-05-10T10:31:47.396Z,32.12
2023-05-10T10:34:33.120Z,32.47
2023-05-10T10:37:04.965Z,31.72
2023-05-10T10:39:32.321Z,31.71
2023-05-10T10:41:59.731Z,31.46
2023-05-10T10:44:37.068Z,31.10
2023-05-10T10:47:14.201Z,31.19
2023-05-10T10:49:41.082Z,31.26
2023-05-10T10:52:35.658Z,31.04
2023-05-10T10:55:10.186Z,30.47
2023-05-10T10:57:48.637Z,30.03
2023-05-10T11:00:22.452Z,29.62
2023-05-10T11:03:22.190Z,29.14
2023-05-10T11:05:49.672Z,29.90
2023-05-10T11:08:21.052Z,28.69
2023-05-10T11:11:01.355Z,27.28
2023-05-10T11:13:33.169Z,27.10
2023-05-10T11:16:00.487Z,27.17
2023-05-10T11:18:28.759Z,27.04
2023-05-10T11:21:06.410Z,27.38
2023-05-10T11:23:34.475Z,28.18
2023-05-10T11:26:02.310Z,28.84
2023-05-10T11:28:29.411Z,28.96
2023-05-10T11:30:56.798Z,28.35
2023-05-10T11:33:23.849Z,27.84
2023-05-10T11:35:50.765Z,27.15
2023-05-10T11:38:17.698Z,27.12
2023-05-10T11:40:44.714Z,27.53
2023-05-10T11:43:12.404Z,27.79
2023-05-10T11:45:39.376Z,27.86
2023-05-10T11:48:06.405Z,27.24
2023-05-10T11:50:33.764Z,26.59
2023-05-10T11:53:00.615Z,26.64
2023-05-10T11:55:27.602Z,26.86
2023-05-10T11:57:55.396Z,26.71
2023-05-10T12:00:22.516Z,26.85
2023-05-10T12:02:49.854Z,26.73
2023-05-10T12:05:17.053Z,25.83
2023-05-10T12:07:44.169Z,26.68
2023-05-10T12:10:15.698Z,27.31
2023-05-10T12:12:46.963Z,27.04
2023-05-10T12:15:23.441Z,27.30
2023-05-10T12:17:50.992Z,27.14
2023-05-10T12:20:28.754Z,27.13
2023-05-10T12:22:58.920Z,27.29
2023-05-10T12:25:36.175Z,26.57
2023-05-10T12:28:06.238Z,26.67
2023-05-10T12:30:34.205Z,26.89
2023-05-10T12:33:11.255Z,26.66
2023-05-10T12:35:46.566Z,26.55
2023-05-10T12:38:26.512Z,26.19
2023-05-10T12:40:53.451Z,25.83
2023-05-10T12:43:20.457Z,25.96
2023-05-10T12:45:50.002Z,25.38
